createdAt,value
2022-08-23T00:02:23.699Z,50.95
2022-08-23T00:07:28.222Z,50.98
2022-08-23T00:12:32.450Z,51.01
2022-08-23T00:17:35.374Z,51.33
2022-08-23T00:22:40.153Z,51.60
2022-08-23T00:27:43.204Z,51.64
2022-08-23T00:32:46.330Z,52.17
2022-08-23T00:38:05.926Z,52.29
2022-08-23T00:43:32.902Z,52.36
2022-08-23T00:48:38.024Z,52.62
2022-08-23T00:53:45.046Z,53.05
2022-08-23T00:58:47.762Z,52.92
2022-08-23T01:04:04.715Z,53.31
2022-08-23T01:09:12.352Z,53.30
2022-08-23T01:14:38.706Z,53.45
2022-08-23T01:19:48.732Z,53.27
2022-08-23T01:25:08.526Z,53.59
2022-08-23T01:30:20.552Z,54.31
2022-08-23T01:35:36.904Z,54.30
2022-08-23T01:40:40.962Z,54.37
2022-08-23T01:45:43.841Z,54.06
2022-08-23T01:50:48.326Z,54.00
2022-08-23T01:55:51.608Z,54.62
2022-08-23T02:00:56.204Z,54.87
2022-08-23T02:05:59.480Z,54.98
2022-08-23T02:11:10.876Z,55.35
2022-08-23T02:16:27.774Z,55.62
2022-08-23T02:21:32.249Z,55.84
2022-08-23T02:26:36.585Z,55.59
2022-08-23T02:31:39.711Z,55.58
2022-08-23T02:36:44.250Z,55.98
2022-08-23T02:41:48.029Z,56.27
2022-08-23T02:46:51.241Z,56.14
2022-08-23T02:51:54.258Z,55.92
2022-08-23T02:56:57.458Z,55.89
2022-08-23T03:02:00.178Z,56.38
2022-08-23T03:07:08.420Z,55.94
2022-08-23T03:12:12.472Z,55.67
2022-08-23T03:17:20.497Z,55.75
2022-08-23T03:22:24.277Z,54.99
2022-08-23T03:27:28.656Z,54.77
2022-08-23T03:32:31.692Z,54.08
2022-08-23T03:37:34.805Z,54.23
2022-08-23T03:42:44.005Z,53.69
2022-08-23T03:47:49.058Z,53.83
2022-08-23T03:52:52.681Z,53.40
2022-08-23T03:57:56.157Z,53.03
2022-08-23T04:02:59.242Z,52.82
2022-08-23T04:08:11.154Z,52.69
2022-08-23T04:13:16.825Z,52.01
2022-08-23T04:18:19.651Z,51.46
2022-08-23T04:23:22.725Z,51.07
2022-08-23T04:28:29.101Z,50.72
2022-08-23T04:33:33.161Z,50.30
2022-08-23T04:38:36.183Z,50.03
2022-08-23T04:43:44.084Z,49.32
2022-08-23T04:48:49.200Z,49.14
2022-08-23T04:53:54.017Z,48.56
2022-08-23T04:59:16.658Z,47.83
2022-08-23T05:04:21.432Z,47.41
2022-08-23T05:09:25.280Z,46.40
2022-08-23T05:14:28.763Z,46.09
2022-08-23T05:19:31.744Z,45.63
2022-08-23T05:24:34.673Z,44.80
2022-08-23T05:29:37.450Z,44.10
2022-08-23T05:34:40.274Z,43.89
2022-08-23T05:39:46.180Z,43.64
2022-08-23T05:44:48.940Z,42.45
2022-08-23T05:49:56.984Z,42.05
2022-08-23T05:55:02.833Z,41.23
2022-08-23T06:00:17.312Z,40.69
2022-08-23T06:05:22.856Z,40.10
2022-08-23T06:10:26.711Z,39.69
2022-08-23T06:15:35.998Z,40.23
2022-08-23T06:20:38.960Z,39.37
2022-08-23T06:25:43.976Z,39.83
2022-08-23T06:30:50.069Z,39.96
2022-08-23T06:36:13.894Z,39.66
2022-08-23T06:41:42.506Z,38.96
2022-08-23T06:47:03.622Z,39.70
2022-08-23T06:52:06.883Z,39.30
2022-08-23T06:57:25.825Z,39.25
2022-08-23T07:02:54.950Z,38.83
2022-08-23T07:08:16.308Z,38.38
2022-08-23T07:13:20.078Z,38.18
2022-08-23T07:18:22.754Z,38.17
2022-08-23T07:23:27.257Z,37.68
2022-08-23T07:28:30.720Z,37.38
2022-08-23T07:33:33.729Z,37.33
2022-08-23T07:38:47.609Z,36.97
2022-08-23T07:43:51.160Z,36.81
2022-08-23T07:48:56.062Z,37.24
2022-08-23T07:54:07.137Z,36.99
2022-08-23T07:59:13.051Z,35.45
2022-08-23T08:04:44.130Z,35.36
2022-08-23T08:09:49.002Z,34.62
2022-08-23T08:14:53.597Z,33.57
2022-08-23T08:20:00.592Z,33.15
2022-08-23T08:25:38.619Z,32.54
2022-08-23T08:30:44.077Z,31.49
2022-08-23T08:35:57.868Z,31.03
2022-08-23T08:41:11.008Z,30.69
2022-08-23T08:46:25.993Z,30.45
2022-08-23T08:51:47.871Z,30.31
2022-08-23T08:56:56.006Z,29.89
2022-08-23T09:02:00.558Z,30.23
2022-08-23T09:07:31.115Z,30.98
2022-08-23T09:12:49.576Z,30.56
2022-08-23T09:17:54.900Z,30.80
2022-08-23T09:23:17.936Z,30.58
2022-08-23T09:28:22.263Z,31.30
2022-08-23T09:33:44.217Z,30.77
2022-08-23T09:39:07.153Z,29.70
2022-08-23T09:44:13.939Z,30.15
2022-08-23T09:49:26.333Z,30.19
2022-08-23T09:54:35.295Z,29.82
2022-08-23T09:59:44.917Z,29.45
2022-08-23T10:05:03.930Z,29.12
2022-08-23T10:10:33.308Z,29.58
2022-08-23T10:16:09.923Z,28.72
2022-08-23T10:21:47.386Z,28.41
2022-08-23T10:27:41.673Z,28.81
2022-08-23T10:33:23.337Z,27.66
2022-08-23T10:38:45.278Z,27.29
2022-08-23T10:44:07.168Z,26.58
2022-08-23T10:49:13.131Z,27.05
2022-08-23T10:54:36.032Z,26.63
2022-08-23T10:59:47.324Z,27.01
2022-08-23T11:05:03.785Z,27.14
2022-08-23T11:10:31.769Z,26.52
2022-08-23T11:15:45.003Z,26.69
2022-08-23T11:20:49.286Z,25.46
2022-08-23T11:25:56.408Z,25.22
2022-08-23T11:31:09.234Z,25.46
2022-08-23T11:36:12.522Z,25.23
2022-08-23T11:41:24.943Z,24.11
2022-08-23T11:46:28.233Z,25.39
2022-08-23T11:51:50.745Z,26.50
2022-08-23T11:57:20.177Z,26.54
2022-08-23T12:02:32.293Z,26.76
2022-08-23T12:07:47.438Z,25.62
2022-08-23T12:13:33.176Z,23.85
2022-08-23T12:18:42.518Z,22.84
2022-08-23T12:23:57.548Z,22.64
2022-08-23T12:29:18.982Z,23.11
2022-08-23T12:34:42.148Z,24.12
2022-08-23T12:39:55.326Z,24.62
2022-08-23T12:45:20.838Z,24.50
2022-08-23T12:50:33.484Z,24.69
2022-08-23T12:55:50.131Z,25.37
2022-08-23T13:00:59.396Z,25.92
2022-08-23T13:06:07.273Z,24.98
2022-08-23T13:11:18.261Z,25.16
2022-08-23T13:16:36.239Z,26.48
2022-08-23T13:21:39.750Z,27.53
2022-08-23T13:26:44.193Z,27.58
2022-08-23T13:32:04.131Z,27.59
2022-08-23T13:37:23.654Z,27.56
2022-08-23T13:42:32.816Z,27.25
2022-08-23T13:47:36.435Z,27.53
2022-08-23T13:53:03.101Z,27.73
2022-08-23T13:58:11.478Z,27.53
2022-08-23T14:03:13.992Z,27.56
2022-08-23T14:08:16.651Z,27.04
2022-08-23T14:13:29.934Z,26.70
2022-08-23T14:18:33.403Z,27.55
2022-08-23T14:23:36.115Z,27.47
2022-08-23T14:28:43.873Z,27.32
2022-08-23T14:33:48.332Z,27.10
2022-08-23T14:38:51.006Z,27.46
2022-08-23T14:43:54.156Z,27.41
2022-08-23T14:48:57.085Z,27.14
2022-08-23T14:54:03.985Z,27.21
2022-08-23T14:59:07.012Z,27.31
2022-08-23T15:04:10.276Z,27.31
2022-08-23T15:09:12.938Z,27.93
2022-08-23T15:14:15.821Z,28.29
2022-08-23T15:19:18.536Z,28.64
2022-08-23T15:24:21.390Z,28.52
2022-08-23T15:29:24.219Z,28.58
2022-08-23T15:34:26.992Z,28.72
2022-08-23T15:39:29.825Z,29.48
2022-08-23T15:44:32.594Z,29.12
2022-08-23T15:49:36.614Z,29.93
2022-08-23T15:54:39.703Z,30.50
2022-08-23T15:59:43.160Z,30.68
2022-08-23T16:04:46.071Z,30.75
2022-08-23T16:09:49.048Z,30.95
2022-08-23T16:14:52.292Z,31.24
2022-08-23T16:19:54.997Z,31.35
2022-08-23T16:24:57.942Z,31.79
2022-08-23T16:30:00.651Z,32.21
2022-08-23T16:35:04.298Z,31.75
2022-08-23T16:40:08.738Z,32.18
2022-08-23T16:45:12.286Z,32.06
2022-08-23T16:50:15.360Z,32.45
2022-08-23T16:55:18.097Z,32.60
2022-08-23T17:00:21.633Z,32.79
2022-08-23T17:05:24.899Z,32.69
2022-08-23T17:10:28.324Z,32.86
2022-08-23T17:15:34.491Z,33.07
2022-08-23T17:20:39.451Z,33.40
2022-08-23T17:25:44.567Z,33.32
2022-08-23T17:30:47.828Z,33.86
2022-08-23T17:35:50.558Z,34.33
2022-08-23T17:40:53.465Z,34.67
2022-08-23T17:45:56.220Z,34.77
2022-08-23T17:51:01.612Z,35.51
2022-08-23T17:56:05.837Z,35.66
2022-08-23T18:01:12.844Z,36.14
2022-08-23T18:06:17.547Z,36.74
2022-08-23T18:11:20.848Z,37.02
2022-08-23T18:16:26.295Z,37.58
2022-08-23T18:21:30.831Z,38.51
2022-08-23T18:26:53.973Z,38.90
2022-08-23T18:31:56.944Z,39.58
2022-08-23T18:37:00.799Z,40.19
2022-08-23T18:42:05.588Z,40.30
2022-08-23T18:47:08.577Z,40.67
2022-08-23T18:52:11.203Z,41.50
2022-08-23T18:57:16.199Z,41.66
2022-08-23T19:02:19.791Z,42.32
2022-08-23T19:07:22.552Z,42.56
2022-08-23T19:12:26.253Z,43.14
2022-08-23T19:17:29.075Z,43.86
2022-08-23T19:22:31.775Z,44.62
2022-08-23T19:27:35.095Z,45.40
2022-08-23T19:32:39.725Z,45.93
2022-08-23T19:37:43.900Z,46.04
2022-08-23T19:42:50.095Z,46.78
2022-08-23T19:47:54.028Z,47.06
2022-08-23T19:52:57.322Z,47.15
2022-08-23T19:58:01.185Z,47.15
2022-08-23T20:03:04.184Z,47.70
2022-08-23T20:08:07.581Z,48.19
2022-08-23T20:13:10.238Z,48.20
2022-08-23T20:18:13.016Z,48.18
2022-08-23T20:23:34.377Z,48.46
2022-08-23T20:28:36.996Z,48.13
2022-08-23T20:33:42.289Z,48.23
2022-08-23T20:38:48.910Z,48.86
2022-08-23T20:43:51.559Z,49.20
2022-08-23T20:48:57.550Z,49.43
2022-08-23T20:54:01.336Z,49.67
2022-08-23T20:59:08.180Z,49.75
2022-08-23T21:04:12.784Z,49.66
2022-08-23T21:09:20.539Z,49.83
2022-08-23T21:14:25.493Z,49.75
2022-08-23T21:19:30.145Z,50.21
2022-08-23T21:24:33.079Z,50.38
2022-08-23T21:29:59.350Z,50.17
2022-08-23T21:35:35.799Z,49.94
2022-08-23T21:40:40.225Z,49.18
2022-08-23T21:45:43.295Z,49.92
2022-08-23T21:50:46.613Z,49.78
2022-08-23T21:55:49.606Z,49.73
2022-08-23T22:00:52.679Z,49.63
2022-08-23T22:05:55.691Z,49.52
2022-08-23T22:10:59.567Z,49.70
2022-08-23T22:16:02.638Z,50.02
2022-08-23T22:21:05.769Z,50.74
2022-08-23T22:26:08.460Z,50.80
2022-08-23T22:31:13.904Z,50.93
2022-08-23T22:36:21.967Z,51.19
2022-08-23T22:41:28.418Z,51.50
2022-08-23T22:46:34.194Z,52.30
2022-08-23T22:51:37.617Z,53.00
2022-08-23T22:56:49.403Z,52.82
2022-08-23T23:01:54.766Z,53.33
2022-08-23T23:06:59.529Z,53.56
2022-08-23T23:12:02.531Z,53.90
2022-08-23T23:17:05.340Z,53.85
2022-08-23T23:22:08.950Z,54.13
2022-08-23T23:27:11.971Z,54.45
2022-08-23T23:32:15.859Z,54.79
2022-08-23T23:37:18.578Z,55.46
2022-08-23T23:42:21.237Z,55.82
2022-08-23T23:47:24.874Z,56.33
2022-08-23T23:52:27.720Z,56.48
2022-08-23T23:57:31.123Z,56.64
